createdAt,value
2022-12-13T00:00:50.582Z,-0.43
2022-12-13T00:01:54.543Z,-0.42
2022-12-13T00:02:56.553Z,-0.41
2022-12-13T00:04:01.142Z,-0.41
2022-12-13T00:05:04.171Z,-0.42
2022-12-13T00:06:06.360Z,-0.45
2022-12-13T00:07:09.138Z,-0.45
2022-12-13T00:08:11.483Z,-0.45
2022-12-13T00:09:14.842Z,-0.46
2022-12-13T00:10:16.795Z,-0.47
2022-12-13T00:11:19.644Z,-0.48
2022-12-13T00:12:23.025Z,-0.47
2022-12-13T00:13:26.601Z,-0.46
2022-12-13T00:14:29.529Z,-0.46
2022-12-13T00:15:31.323Z,-0.48
2022-12-13T00:16:34.111Z,-0.48
2022-12-13T00:17:36.026Z,-0.49
2022-12-13T00:18:38.967Z,-0.51
2022-12-13T00:19:41.709Z,-0.52
2022-12-13T00:20:43.504Z,-0.53
2022-12-13T00:21:46.604Z,-0.52
2022-12-13T00:22:48.465Z,-0.52
2022-12-13T00:23:51.722Z,-0.51
2022-12-13T00:24:54.335Z,-0.51
2022-12-13T00:25:57.090Z,-0.51
2022-12-13T00:26:59.002Z,-0.51
2022-12-13T00:28:03.625Z,-0.49
2022-12-13T00:29:06.657Z,-0.47
2022-12-13T00:30:10.528Z,-0.49
2022-12-13T00:31:51.651Z,-0.49
2022-12-13T00:32:34.946Z,-0.48
2022-12-13T00:33:37.821Z,-0.48
2022-12-13T00:34:40.550Z,-0.47
2022-12-13T00:35:42.430Z,-0.47
2022-12-13T00:36:45.570Z,-0.45
2022-12-13T00:37:47.292Z,-0.45
2022-12-13T00:39:00.842Z,-0.44
2022-12-13T00:40:03.834Z,-0.45
2022-12-13T00:41:13.301Z,-0.46
2022-12-13T00:42:16.013Z,-0.48
2022-12-13T00:43:19.178Z,-0.48
2022-12-13T00:44:21.923Z,-0.50
2022-12-13T00:45:24.818Z,-0.51
2022-12-13T00:46:27.800Z,-0.53
2022-12-13T00:47:30.600Z,-0.52
2022-12-13T00:48:32.328Z,-0.53
2022-12-13T00:49:35.173Z,-0.53
2022-12-13T00:50:37.771Z,-0.54
2022-12-13T00:51:40.997Z,-0.53
2022-12-13T00:52:42.814Z,-0.53
2022-12-13T00:53:45.946Z,-0.53
2022-12-13T00:54:48.826Z,-0.54
2022-12-13T00:55:51.078Z,-0.55
2022-12-13T00:56:54.055Z,-0.57
2022-12-13T00:57:55.897Z,-0.58
2022-12-13T00:59:00.918Z,-0.60
2022-12-13T01:00:04.379Z,-0.59
2022-12-13T01:01:07.970Z,-0.60
2022-12-13T01:02:10.789Z,-0.61
2022-12-13T01:03:20.673Z,-0.62
2022-12-13T01:04:23.554Z,-0.64
2022-12-13T01:06:02.245Z,-0.64
2022-12-13T01:06:51.353Z,-0.66
2022-12-13T01:07:53.179Z,-0.69
2022-12-13T01:08:56.566Z,-0.70
2022-12-13T01:09:59.397Z,-0.70
2022-12-13T01:11:01.201Z,-0.70
2022-12-13T01:12:06.924Z,-0.71
2022-12-13T01:13:08.665Z,-0.70
2022-12-13T01:14:12.772Z,-0.71
2022-12-13T01:15:14.949Z,-0.72
2022-12-13T01:16:18.686Z,-0.72
2022-12-13T01:17:21.744Z,-0.71
2022-12-13T01:18:23.571Z,-0.72
2022-12-13T01:19:27.562Z,-0.73
2022-12-13T01:20:29.307Z,-0.71
2022-12-13T01:21:32.181Z,-0.71
2022-12-13T01:22:33.969Z,-0.72
2022-12-13T01:23:36.942Z,-0.73
2022-12-13T01:24:40.008Z,-0.73
2022-12-13T01:25:41.744Z,-0.74
2022-12-13T01:26:44.855Z,-0.74
2022-12-13T01:27:47.171Z,-0.77
2022-12-13T01:28:50.428Z,-0.78
2022-12-13T01:29:53.521Z,-0.77
2022-12-13T01:30:57.540Z,-0.79
2022-12-13T01:31:59.548Z,-0.80
2022-12-13T01:33:02.287Z,-0.79
2022-12-13T01:34:19.262Z,-0.80
2022-12-13T01:35:21.066Z,-0.81
2022-12-13T01:36:27.511Z,-0.82
2022-12-13T01:37:31.079Z,-0.83
2022-12-13T01:38:39.223Z,-0.82
2022-12-13T01:39:41.987Z,-0.84
2022-12-13T01:40:45.397Z,-0.85
2022-12-13T01:41:50.595Z,-0.85
2022-12-13T01:42:53.714Z,-0.87
2022-12-13T01:43:58.032Z,-0.89
2022-12-13T01:45:07.814Z,-0.86
2022-12-13T01:46:10.632Z,-0.86
2022-12-13T01:47:15.970Z,-0.87
2022-12-13T01:48:22.007Z,-0.87
2022-12-13T01:49:23.796Z,-0.87
2022-12-13T01:50:31.900Z,-0.88
2022-12-13T01:51:36.442Z,-0.87
2022-12-13T01:52:39.530Z,-0.88
2022-12-13T01:54:02.611Z,-0.89
2022-12-13T01:55:07.491Z,-0.90
2022-12-13T01:56:11.912Z,-0.90
2022-12-13T01:57:15.935Z,-0.91
2022-12-13T01:58:19.518Z,-0.91
2022-12-13T01:59:22.255Z,-0.91
2022-12-13T02:00:27.549Z,-0.92
2022-12-13T02:01:29.681Z,-0.93
2022-12-13T02:02:32.485Z,-0.95
2022-12-13T02:03:35.182Z,-0.96
2022-12-13T02:04:43.805Z,-0.99
2022-12-13T02:05:53.113Z,-1.01
2022-12-13T02:06:56.343Z,-1.02
2022-12-13T02:08:01.178Z,-1.04
2022-12-13T02:09:05.200Z,-1.04
2022-12-13T02:10:09.543Z,-1.03
2022-12-13T02:11:11.711Z,-1.05
2022-12-13T02:12:14.810Z,-1.05
2022-12-13T02:13:16.723Z,-1.07
2022-12-13T02:14:19.461Z,-1.07
2022-12-13T02:15:21.909Z,-1.06
2022-12-13T02:16:35.359Z,-1.05
2022-12-13T02:17:52.314Z,-1.04
2022-12-13T02:19:06.836Z,-1.05
2022-12-13T02:20:26.863Z,-1.07
2022-12-13T02:21:34.313Z,-1.09
2022-12-13T02:23:05.154Z,-1.08
2022-12-13T02:24:40.758Z,-1.10
2022-12-13T02:26:00.191Z,-1.12
2022-12-13T02:27:10.241Z,-1.11
2022-12-13T02:28:31.289Z,-1.12
2022-12-13T02:30:19.631Z,-1.11
2022-12-13T02:31:28.306Z,-1.13
2022-12-13T02:32:33.287Z,-1.12
2022-12-13T02:33:42.687Z,-1.12
2022-12-13T02:34:47.195Z,-1.11
2022-12-13T02:35:54.601Z,-1.12
2022-12-13T02:36:59.413Z,-1.12
2022-12-13T02:38:06.913Z,-1.11
2022-12-13T02:39:11.888Z,-1.11
2022-12-13T02:40:20.016Z,-1.10
2022-12-13T02:41:27.706Z,-1.09
2022-12-13T02:42:31.741Z,-1.09
2022-12-13T02:43:45.224Z,-1.09
2022-12-13T02:44:52.457Z,-1.08
2022-12-13T02:45:56.975Z,-1.08
2022-12-13T02:47:03.188Z,-1.06
2022-12-13T02:48:07.191Z,-1.07
2022-12-13T02:49:10.300Z,-1.07
2022-12-13T02:50:14.572Z,-1.08
2022-12-13T02:51:16.943Z,-1.09
2022-12-13T02:52:22.201Z,-1.10
2022-12-13T02:53:25.692Z,-1.12
2022-12-13T02:54:28.436Z,-1.11
2022-12-13T02:55:32.381Z,-1.11
2022-12-13T02:56:35.138Z,-1.11
2022-12-13T02:57:38.481Z,-1.11
2022-12-13T02:58:43.998Z,-1.11
2022-12-13T02:59:45.865Z,-1.09
2022-12-13T03:00:56.614Z,-1.09
2022-12-13T03:02:10.857Z,-1.08
2022-12-13T03:03:21.829Z,-1.10
2022-12-13T03:04:33.697Z,-1.11
2022-12-13T03:05:59.397Z,-1.12
2022-12-13T03:07:08.684Z,-1.14
2022-12-13T03:08:19.692Z,-1.15
2022-12-13T03:09:38.297Z,-1.17
2022-12-13T03:10:43.673Z,-1.19
2022-12-13T03:12:18.149Z,-1.21
2022-12-13T03:13:39.936Z,-1.25
2022-12-13T03:14:50.321Z,-1.27
2022-12-13T03:15:57.688Z,-1.27
2022-12-13T03:17:02.284Z,-1.27
2022-12-13T03:18:15.743Z,-1.26
2022-12-13T03:19:20.583Z,-1.26
2022-12-13T03:20:24.730Z,-1.24
2022-12-13T03:21:27.642Z,-1.24
2022-12-13T03:22:29.509Z,-1.23
2022-12-13T03:23:32.264Z,-1.20
2022-12-13T03:24:34.122Z,-1.19
2022-12-13T03:25:36.980Z,-1.18
2022-12-13T03:26:39.494Z,-1.14
2022-12-13T03:27:42.350Z,-1.13
2022-12-13T03:28:44.535Z,-1.12
2022-12-13T03:29:47.290Z,-1.10
2022-12-13T03:30:49.183Z,-1.10
2022-12-13T03:31:51.960Z,-1.09
2022-12-13T03:32:55.083Z,-1.08
2022-12-13T03:33:58.299Z,-1.09
2022-12-13T03:35:00.965Z,-1.07
2022-12-13T03:36:04.044Z,-1.08
2022-12-13T03:37:05.783Z,-1.07
2022-12-13T03:38:09.040Z,-1.07
2022-12-13T03:39:11.828Z,-1.08
2022-12-13T03:40:13.775Z,-1.09
2022-12-13T03:41:20.186Z,-1.09
2022-12-13T03:42:21.962Z,-1.10
2022-12-13T03:43:24.984Z,-1.09
2022-12-13T03:44:31.712Z,-1.07
2022-12-13T03:45:34.548Z,-1.07
2022-12-13T03:46:36.454Z,-1.06
2022-12-13T03:47:39.585Z,-1.04
2022-12-13T03:48:42.684Z,-1.02
2022-12-13T03:49:45.423Z,-1.01
2022-12-13T03:50:57.569Z,-1.00
2022-12-13T03:51:59.378Z,-1.00
2022-12-13T03:53:04.695Z,-0.99
2022-12-13T03:54:07.497Z,-0.98
2022-12-13T03:55:09.329Z,-0.97
2022-12-13T03:56:12.044Z,-0.96
2022-12-13T03:57:15.657Z,-0.96
2022-12-13T03:58:18.461Z,-0.95
2022-12-13T03:59:21.200Z,-0.94
2022-12-13T04:00:23.383Z,-0.93
2022-12-13T04:01:26.375Z,-0.92
2022-12-13T04:02:31.158Z,-0.91
2022-12-13T04:03:34.638Z,-0.92
2022-12-13T04:04:38.774Z,-0.91
2022-12-13T04:05:40.560Z,-0.92
2022-12-13T04:06:43.649Z,-0.92
2022-12-13T04:07:48.358Z,-0.92
2022-12-13T04:08:52.003Z,-0.91
2022-12-13T04:09:53.962Z,-0.91
2022-12-13T04:10:56.716Z,-0.91
2022-12-13T04:12:17.080Z,-0.90
2022-12-13T04:13:33.931Z,-0.91
2022-12-13T04:14:36.678Z,-0.91
2022-12-13T04:15:38.446Z,-0.91
2022-12-13T04:16:41.297Z,-0.89
2022-12-13T04:17:43.056Z,-0.89
2022-12-13T04:18:54.295Z,-0.89
2022-12-13T04:19:57.466Z,-0.90
2022-12-13T04:21:00.226Z,-0.90
2022-12-13T04:22:02.056Z,-0.91
2022-12-13T04:23:09.926Z,-0.92
2022-12-13T04:24:13.428Z,-0.92
2022-12-13T04:25:15.433Z,-0.93
2022-12-13T04:26:18.549Z,-0.95
2022-12-13T04:27:20.331Z,-0.94
2022-12-13T04:28:23.339Z,-0.94
2022-12-13T04:29:25.520Z,-0.95
2022-12-13T04:30:37.665Z,-0.96
2022-12-13T04:31:41.036Z,-0.97
2022-12-13T04:32:42.897Z,-0.98
2022-12-13T04:33:45.614Z,-0.98
2022-12-13T04:34:47.496Z,-0.97
2022-12-13T04:35:52.201Z,-0.99
2022-12-13T04:36:53.966Z,-1.00
2022-12-13T04:37:57.032Z,-0.99
2022-12-13T04:39:00.526Z,-1.00
2022-12-13T04:40:02.778Z,-1.01
2022-12-13T04:41:07.147Z,-1.00
2022-12-13T04:42:09.245Z,-1.00
2022-12-13T04:43:11.951Z,-1.01
2022-12-13T04:44:27.892Z,-0.99
2022-12-13T04:45:33.443Z,-0.99
2022-12-13T04:46:35.793Z,-0.97
2022-12-13T04:47:38.583Z,-0.98
2022-12-13T04:48:41.470Z,-0.99
2022-12-13T04:49:43.204Z,-0.99
2022-12-13T04:50:46.010Z,-0.99
2022-12-13T04:51:49.332Z,-1.00
2022-12-13T04:52:52.125Z,-0.99
2022-12-13T04:53:53.975Z,-0.99
2022-12-13T04:54:57.212Z,-0.99
2022-12-13T04:55:59.266Z,-1.00
2022-12-13T04:57:01.956Z,-1.01
2022-12-13T04:58:03.826Z,-1.01
2022-12-13T04:59:06.600Z,-1.00
2022-12-13T05:00:13.182Z,-0.99
2022-12-13T05:01:16.059Z,-1.01
2022-12-13T05:02:23.971Z,-1.01
2022-12-13T05:03:27.872Z,-1.02
2022-12-13T05:04:33.220Z,-1.01
2022-12-13T05:05:39.573Z,-1.02
2022-12-13T05:06:41.330Z,-1.02
2022-12-13T05:07:45.469Z,-1.01
2022-12-13T05:08:47.305Z,-1.00
2022-12-13T05:09:50.127Z,-0.99
2022-12-13T05:10:51.954Z,-0.98
2022-12-13T05:12:00.982Z,-0.97
2022-12-13T05:13:05.137Z,-0.96
2022-12-13T05:14:06.949Z,-0.96
2022-12-13T05:15:10.366Z,-0.95
2022-12-13T05:16:12.534Z,-0.96
2022-12-13T05:17:15.485Z,-0.96
2022-12-13T05:18:17.261Z,-0.95
2022-12-13T05:19:20.242Z,-0.96
2022-12-13T05:20:22.436Z,-0.99
2022-12-13T05:21:25.337Z,-1.01
2022-12-13T05:22:27.248Z,-1.02
2022-12-13T05:23:31.441Z,-1.03
2022-12-13T05:24:33.233Z,-1.05
2022-12-13T05:25:36.725Z,-1.04
2022-12-13T05:26:38.712Z,-1.05
2022-12-13T05:27:41.494Z,-1.04
2022-12-13T05:28:44.337Z,-1.03
2022-12-13T05:29:46.361Z,-1.03
2022-12-13T05:30:49.078Z,-1.03
2022-12-13T05:31:52.029Z,-1.02
2022-12-13T05:32:55.200Z,-1.02
2022-12-13T05:34:01.535Z,-1.03
2022-12-13T05:35:05.148Z,-1.04
2022-12-13T05:36:07.721Z,-1.04
2022-12-13T05:37:10.451Z,-1.06
2022-12-13T05:38:12.293Z,-1.04
2022-12-13T05:39:27.879Z,-1.04
2022-12-13T05:40:33.073Z,-1.05
2022-12-13T05:41:36.878Z,-1.06
2022-12-13T05:42:38.807Z,-1.04
2022-12-13T05:43:42.810Z,-1.05
2022-12-13T05:44:46.468Z,-1.04
2022-12-13T05:45:48.495Z,-1.02
2022-12-13T05:46:51.285Z,-1.03
2022-12-13T05:47:53.169Z,-1.04
2022-12-13T05:48:56.050Z,-1.03
2022-12-13T05:49:59.351Z,-1.02
2022-12-13T05:51:10.859Z,-1.02
2022-12-13T05:52:18.015Z,-1.01
2022-12-13T05:53:30.568Z,-1.01
2022-12-13T05:54:35.706Z,-1.03
2022-12-13T05:55:38.144Z,-1.03
2022-12-13T05:56:40.851Z,-1.05
2022-12-13T05:57:42.732Z,-1.05
2022-12-13T05:58:54.296Z,-1.06
2022-12-13T05:59:58.004Z,-1.07
2022-12-13T06:01:05.980Z,-1.08
2022-12-13T06:02:09.300Z,-1.09
2022-12-13T06:03:11.205Z,-1.10
2022-12-13T06:04:23.150Z,-1.10
2022-12-13T06:05:25.356Z,-1.11
2022-12-13T06:06:29.805Z,-1.11
2022-12-13T06:07:32.653Z,-1.12
2022-12-13T06:08:35.975Z,-1.12
2022-12-13T06:09:39.867Z,-1.12
2022-12-13T06:10:43.117Z,-1.11
2022-12-13T06:11:45.978Z,-1.12
2022-12-13T06:12:47.723Z,-1.13
2022-12-13T06:13:52.940Z,-1.13
2022-12-13T06:15:04.629Z,-1.14
2022-12-13T06:16:25.563Z,-1.16
2022-12-13T06:17:31.835Z,-1.17
2022-12-13T06:18:35.032Z,-1.19
2022-12-13T06:19:37.835Z,-1.19
2022-12-13T06:20:39.730Z,-1.21
2022-12-13T06:21:46.332Z,-1.21
2022-12-13T06:22:48.414Z,-1.21
2022-12-13T06:23:51.161Z,-1.20
2022-12-13T06:24:55.416Z,-1.20
2022-12-13T06:25:57.483Z,-1.20
2022-12-13T06:27:00.992Z,-1.19
2022-12-13T06:28:03.513Z,-1.20
2022-12-13T06:29:06.292Z,-1.18
2022-12-13T06:30:09.468Z,-1.20
2022-12-13T06:31:12.704Z,-1.19
2022-12-13T06:32:15.511Z,-1.20
2022-12-13T06:33:23.597Z,-1.18
2022-12-13T06:34:26.603Z,-1.17
2022-12-13T06:35:30.484Z,-1.17
2022-12-13T06:36:34.041Z,-1.16
2022-12-13T06:37:36.834Z,-1.14
2022-12-13T06:38:43.589Z,-1.13
2022-12-13T06:39:46.659Z,-1.12
2022-12-13T06:40:51.183Z,-1.11
2022-12-13T06:41:53.895Z,-1.10
2022-12-13T06:42:56.746Z,-1.11
2022-12-13T06:43:58.866Z,-1.09
2022-12-13T06:45:01.601Z,-1.09
2022-12-13T06:46:04.903Z,-1.08
2022-12-13T06:47:11.089Z,-1.08
2022-12-13T06:48:17.498Z,-1.06
2022-12-13T06:49:22.884Z,-1.07
2022-12-13T06:50:25.937Z,-1.07
2022-12-13T06:51:32.943Z,-1.06
2022-12-13T06:52:36.455Z,-1.07
2022-12-13T06:53:40.266Z,-1.08
2022-12-13T06:54:43.648Z,-1.08
2022-12-13T06:55:46.969Z,-1.09
2022-12-13T06:56:50.127Z,-1.10
2022-12-13T06:57:52.840Z,-1.10
2022-12-13T06:59:01.217Z,-1.11
2022-12-13T07:00:06.111Z,-1.14
2022-12-13T07:01:15.080Z,-1.13
2022-12-13T07:02:27.249Z,-1.15
2022-12-13T07:03:29.885Z,-1.15
2022-12-13T07:04:32.982Z,-1.16
2022-12-13T07:05:35.793Z,-1.15
2022-12-13T07:06:37.938Z,-1.15
2022-12-13T07:07:40.680Z,-1.16
2022-12-13T07:08:43.984Z,-1.16
2022-12-13T07:09:47.069Z,-1.15
2022-12-13T07:10:49.832Z,-1.16
2022-12-13T07:11:54.183Z,-1.15
2022-12-13T07:12:56.971Z,-1.16
2022-12-13T07:14:00.669Z,-1.15
2022-12-13T07:15:02.473Z,-1.15
2022-12-13T07:16:05.897Z,-1.16
2022-12-13T07:17:08.684Z,-1.14
2022-12-13T07:18:11.423Z,-1.14
2022-12-13T07:19:23.889Z,-1.14
2022-12-13T07:20:27.326Z,-1.14
2022-12-13T07:21:30.312Z,-1.14
2022-12-13T07:22:34.462Z,-1.13
2022-12-13T07:23:39.309Z,-1.12
2022-12-13T07:24:44.400Z,-1.13
2022-12-13T07:25:52.898Z,-1.12
2022-12-13T07:26:56.993Z,-1.13
2022-12-13T07:28:01.111Z,-1.11
2022-12-13T07:29:05.401Z,-1.11
2022-12-13T07:30:09.812Z,-1.10
2022-12-13T07:31:13.552Z,-1.10
2022-12-13T07:32:15.917Z,-1.08
2022-12-13T07:33:22.387Z,-1.08
2022-12-13T07:34:25.579Z,-1.08
2022-12-13T07:35:28.537Z,-1.08
2022-12-13T07:36:31.350Z,-1.07
2022-12-13T07:37:35.837Z,-1.05
2022-12-13T07:38:38.900Z,-1.06
2022-12-13T07:39:40.941Z,-1.04
2022-12-13T07:40:43.710Z,-1.03
2022-12-13T07:41:46.715Z,-1.02
2022-12-13T07:42:52.099Z,-1.01
2022-12-13T07:43:55.737Z,-0.98
2022-12-13T07:44:58.837Z,-0.98
2022-12-13T07:46:02.579Z,-0.96
2022-12-13T07:47:05.462Z,-0.95
2022-12-13T07:48:08.605Z,-0.95
2022-12-13T07:49:13.255Z,-0.93
2022-12-13T07:50:24.620Z,-0.93
2022-12-13T07:51:28.882Z,-0.90
2022-12-13T07:52:31.633Z,-0.89
2022-12-13T07:53:34.113Z,-0.89
2022-12-13T07:54:37.161Z,-0.87
2022-12-13T07:55:38.935Z,-0.85
2022-12-13T07:56:41.674Z,-0.83
2022-12-13T07:57:44.669Z,-0.82
2022-12-13T07:58:48.782Z,-0.81
2022-12-13T07:59:51.545Z,-0.81
2022-12-13T08:00:54.636Z,-0.80
2022-12-13T08:01:57.664Z,-0.80
2022-12-13T08:03:05.863Z,-0.78
2022-12-13T08:04:10.818Z,-0.77
2022-12-13T08:05:25.728Z,-0.79
2022-12-13T08:06:29.564Z,-0.80
2022-12-13T08:07:32.308Z,-0.79
2022-12-13T08:08:36.082Z,-0.79
2022-12-13T08:09:39.222Z,-0.80
2022-12-13T08:10:42.118Z,-0.80
2022-12-13T08:11:45.310Z,-0.80
2022-12-13T08:12:48.077Z,-0.79
2022-12-13T08:13:52.311Z,-0.76
2022-12-13T08:14:55.391Z,-0.75
2022-12-13T08:16:02.610Z,-0.72
2022-12-13T08:17:05.901Z,-0.73
2022-12-13T08:18:08.639Z,-0.69
2022-12-13T08:19:11.519Z,-0.67
2022-12-13T08:20:13.526Z,-0.66
2022-12-13T08:21:52.796Z,-0.64
2022-12-13T08:22:55.607Z,-0.64
2022-12-13T08:24:05.525Z,-0.62
2022-12-13T08:25:09.117Z,-0.61
2022-12-13T08:26:31.168Z,-0.59
2022-12-13T08:27:34.022Z,-0.59
2022-12-13T08:28:37.906Z,-0.60
2022-12-13T08:29:42.049Z,-0.62
2022-12-13T08:30:45.143Z,-0.62
2022-12-13T08:31:47.928Z,-0.63
2022-12-13T08:32:50.334Z,-0.64
2022-12-13T08:33:53.484Z,-0.64
2022-12-13T08:34:56.233Z,-0.66
2022-12-13T08:35:58.991Z,-0.65
2022-12-13T08:37:03.902Z,-0.65
2022-12-13T08:38:07.393Z,-0.62
2022-12-13T08:39:10.145Z,-0.60
2022-12-13T08:40:13.154Z,-0.60
2022-12-13T08:41:15.882Z,-0.58
2022-12-13T08:42:20.322Z,-0.58
2022-12-13T08:43:24.648Z,-0.56
2022-12-13T08:44:27.875Z,-0.54
2022-12-13T08:45:34.132Z,-0.53
2022-12-13T08:46:36.933Z,-0.51
2022-12-13T08:47:42.112Z,-0.50
2022-12-13T08:48:44.731Z,-0.48
2022-12-13T08:49:48.129Z,-0.48
2022-12-13T08:50:50.886Z,-0.47
2022-12-13T08:51:52.734Z,-0.45
2022-12-13T08:52:55.697Z,-0.44
2022-12-13T08:54:10.570Z,-0.43
2022-12-13T08:55:15.995Z,-0.42
2022-12-13T08:56:37.442Z,-0.40
2022-12-13T08:57:40.588Z,-0.38
2022-12-13T08:58:43.343Z,-0.37
2022-12-13T08:59:46.380Z,-0.37
2022-12-13T09:00:50.860Z,-0.37
2022-12-13T09:01:53.842Z,-0.36
2022-12-13T09:02:58.427Z,-0.36
2022-12-13T09:04:01.145Z,-0.38
2022-12-13T09:05:04.386Z,-0.40
2022-12-13T09:06:10.261Z,-0.41
2022-12-13T09:07:13.290Z,-0.43
2022-12-13T09:08:25.238Z,-0.42
2022-12-13T09:09:29.058Z,-0.42
2022-12-13T09:10:38.188Z,-0.41
2022-12-13T09:11:42.719Z,-0.41
2022-12-13T09:12:45.873Z,-0.41
2022-12-13T09:13:49.293Z,-0.42
2022-12-13T09:14:52.159Z,-0.41
2022-12-13T09:16:14.288Z,-0.41
2022-12-13T09:17:25.861Z,-0.43
2022-12-13T09:18:36.568Z,-0.47
2022-12-13T09:19:39.757Z,-0.49
2022-12-13T09:20:42.722Z,-0.50
2022-12-13T09:21:45.712Z,-0.48
2022-12-13T09:22:50.132Z,-0.47
2022-12-13T09:23:52.896Z,-0.46
2022-12-13T09:25:05.197Z,-0.43
2022-12-13T09:26:08.224Z,-0.40
2022-12-13T09:27:28.221Z,-0.38
2022-12-13T09:28:31.853Z,-0.36
2022-12-13T09:29:36.312Z,-0.35
2022-12-13T09:30:40.385Z,-0.32
2022-12-13T09:31:51.009Z,-0.32
2022-12-13T09:33:28.335Z,-0.33
2022-12-13T09:34:33.976Z,-0.33
2022-12-13T09:35:38.994Z,-0.33
2022-12-13T09:36:44.342Z,-0.32
2022-12-13T09:37:47.207Z,-0.31
2022-12-13T09:38:50.401Z,-0.30
2022-12-13T09:39:54.985Z,-0.24
2022-12-13T09:40:59.535Z,-0.21
2022-12-13T09:42:10.300Z,-0.17
2022-12-13T09:43:23.016Z,-0.18
2022-12-13T09:44:42.782Z,-0.17
2022-12-13T09:45:50.486Z,-0.17
2022-12-13T09:46:55.781Z,-0.18
2022-12-13T09:48:07.186Z,-0.18
2022-12-13T09:49:23.081Z,-0.21
2022-12-13T09:50:29.202Z,-0.25
2022-12-13T09:51:47.292Z,-0.31
2022-12-13T09:52:51.898Z,-0.34
2022-12-13T09:54:02.576Z,-0.34
2022-12-13T09:55:10.950Z,-0.35
2022-12-13T09:56:13.966Z,-0.34
2022-12-13T09:57:30.612Z,-0.33
2022-12-13T09:58:57.605Z,-0.34
2022-12-13T10:00:05.968Z,-0.32
2022-12-13T10:01:23.303Z,-0.35
2022-12-13T10:02:30.582Z,-0.35
2022-12-13T10:03:34.628Z,-0.35
2022-12-13T10:04:37.445Z,-0.33
2022-12-13T10:05:40.479Z,-0.32
2022-12-13T10:06:43.639Z,-0.29
2022-12-13T10:07:46.192Z,-0.28
2022-12-13T10:08:50.048Z,-0.25
2022-12-13T10:10:01.712Z,-0.21
2022-12-13T10:11:05.269Z,-0.16
2022-12-13T10:12:11.868Z,-0.12
2022-12-13T10:13:19.198Z,-0.08
2022-12-13T10:14:26.235Z,-0.03
2022-12-13T10:15:29.371Z,0.01
2022-12-13T10:16:39.875Z,0.05
2022-12-13T10:17:55.408Z,0.08
2022-12-13T10:18:58.694Z,0.11
2022-12-13T10:20:00.705Z,0.13
2022-12-13T10:21:05.741Z,0.15
2022-12-13T10:22:13.370Z,0.18
2022-12-13T10:23:35.771Z,0.18
2022-12-13T10:24:50.693Z,0.18
2022-12-13T10:26:03.173Z,0.19
2022-12-13T10:27:14.533Z,0.20
2022-12-13T10:28:19.287Z,0.20
2022-12-13T10:29:23.139Z,0.21
2022-12-13T10:30:29.096Z,0.22
2022-12-13T10:31:40.625Z,0.22
2022-12-13T10:32:49.323Z,0.22
2022-12-13T10:33:55.328Z,0.23
2022-12-13T10:34:58.825Z,0.23
2022-12-13T10:36:06.679Z,0.24
2022-12-13T10:37:26.204Z,0.25
2022-12-13T10:38:31.892Z,0.24
2022-12-13T10:39:40.530Z,0.27
2022-12-13T10:40:45.546Z,0.28
2022-12-13T10:41:48.457Z,0.29
2022-12-13T10:43:07.598Z,0.32
2022-12-13T10:44:18.618Z,0.31
2022-12-13T10:45:24.431Z,0.30
2022-12-13T10:46:31.103Z,0.32
2022-12-13T10:47:43.481Z,0.33
2022-12-13T10:48:50.563Z,0.33
2022-12-13T10:49:59.001Z,0.35
2022-12-13T10:51:04.583Z,0.35
2022-12-13T10:52:09.228Z,0.38
2022-12-13T10:53:19.616Z,0.38
2022-12-13T10:54:28.701Z,0.40
2022-12-13T10:55:41.115Z,0.40
2022-12-13T10:56:47.044Z,0.42
2022-12-13T10:57:52.187Z,0.41
2022-12-13T10:59:16.547Z,0.40
2022-12-13T11:00:41.303Z,0.36
2022-12-13T11:01:44.572Z,0.33
2022-12-13T11:02:55.299Z,0.32
2022-12-13T11:04:02.609Z,0.34
2022-12-13T11:05:25.940Z,0.35
2022-12-13T11:06:29.537Z,0.35
2022-12-13T11:07:33.487Z,0.34
2022-12-13T11:08:37.178Z,0.33
2022-12-13T11:09:39.938Z,0.32
2022-12-13T11:10:42.903Z,0.32
2022-12-13T11:11:46.616Z,0.32
2022-12-13T11:12:50.650Z,0.31
2022-12-13T11:13:54.410Z,0.28
2022-12-13T11:14:59.113Z,0.26
2022-12-13T11:16:01.824Z,0.24
2022-12-13T11:17:08.637Z,0.22
2022-12-13T11:18:23.175Z,0.19
2022-12-13T11:19:30.798Z,0.14
2022-12-13T11:20:35.703Z,0.11
2022-12-13T11:21:39.628Z,0.09
2022-12-13T11:22:44.169Z,0.06
2022-12-13T11:23:47.665Z,0.07
2022-12-13T11:24:52.372Z,0.06
2022-12-13T11:25:58.688Z,0.06
2022-12-13T11:27:05.917Z,0.03
2022-12-13T11:28:26.976Z,0.02
2022-12-13T11:29:58.912Z,-0.01
2022-12-13T11:31:10.185Z,-0.04
2022-12-13T11:32:22.894Z,-0.05
2022-12-13T11:33:29.001Z,-0.06
2022-12-13T11:34:39.191Z,-0.07
2022-12-13T11:35:55.169Z,-0.06
2022-12-13T11:37:03.728Z,-0.06
2022-12-13T11:38:16.176Z,-0.07
2022-12-13T11:39:21.306Z,-0.07
2022-12-13T11:40:26.878Z,-0.06
2022-12-13T11:41:33.332Z,-0.06
2022-12-13T11:42:40.262Z,-0.04
2022-12-13T11:43:47.746Z,-0.03
2022-12-13T11:44:59.918Z,-0.02
2022-12-13T11:46:06.148Z,-0.02
2022-12-13T11:47:15.419Z,-0.01
2022-12-13T11:48:21.429Z,-0.02
2022-12-13T11:49:33.526Z,0.00
2022-12-13T11:50:40.439Z,0.01
2022-12-13T11:51:46.229Z,0.03
2022-12-13T11:52:53.718Z,0.04
2022-12-13T11:54:01.860Z,0.05
2022-12-13T11:55:08.033Z,0.06
2022-12-13T11:56:17.141Z,0.08
2022-12-13T11:57:28.474Z,0.09
2022-12-13T11:59:01.875Z,0.09
2022-12-13T12:00:13.211Z,0.08
2022-12-13T12:01:23.611Z,0.08
2022-12-13T12:02:30.424Z,0.08
2022-12-13T12:03:37.983Z,0.09
2022-12-13T12:04:47.240Z,0.08
2022-12-13T12:05:56.102Z,0.08
2022-12-13T12:07:24.339Z,0.08
2022-12-13T12:08:43.691Z,0.08
2022-12-13T12:09:51.622Z,0.05
2022-12-13T12:11:02.499Z,0.03
2022-12-13T12:12:09.258Z,0.02
2022-12-13T12:13:18.009Z,0.01
2022-12-13T12:14:24.578Z,-0.01
2022-12-13T12:15:31.016Z,-0.01
2022-12-13T12:16:39.805Z,-0.01
2022-12-13T12:17:43.285Z,-0.01
2022-12-13T12:18:46.476Z,0.01
2022-12-13T12:19:52.449Z,0.01
2022-12-13T12:21:05.985Z,0.02
2022-12-13T12:22:19.301Z,0.03
2022-12-13T12:23:30.067Z,0.03
2022-12-13T12:24:40.559Z,0.04
2022-12-13T12:25:48.443Z,0.04
2022-12-13T12:27:01.043Z,0.06
2022-12-13T12:28:12.100Z,0.06
2022-12-13T12:29:27.772Z,0.06
2022-12-13T12:30:39.293Z,0.05
2022-12-13T12:31:50.897Z,0.04
2022-12-13T12:32:55.831Z,0.04
2022-12-13T12:34:05.533Z,0.04
2022-12-13T12:35:23.124Z,0.03
2022-12-13T12:36:37.924Z,0.04
2022-12-13T12:37:48.393Z,0.03
2022-12-13T12:39:06.379Z,0.03
2022-12-13T12:41:14.230Z,0.02
2022-12-13T12:42:16.382Z,0.00
2022-12-13T12:43:23.755Z,0.01
2022-12-13T12:44:33.650Z,0.01
2022-12-13T12:45:57.313Z,0.03
2022-12-13T12:49:00.474Z,0.04
2022-12-13T12:50:27.409Z,0.03
2022-12-13T12:51:35.541Z,0.03
2022-12-13T12:52:50.625Z,0.00
2022-12-13T12:53:56.111Z,-0.02
2022-12-13T12:55:05.212Z,-0.03
2022-12-13T12:56:18.688Z,-0.04
2022-12-13T12:57:24.792Z,-0.04
2022-12-13T12:58:30.126Z,-0.04
2022-12-13T12:59:38.589Z,-0.06
2022-12-13T13:00:46.514Z,-0.07
2022-12-13T13:01:57.431Z,-0.06
2022-12-13T13:03:14.728Z,-0.06
2022-12-13T13:04:23.223Z,-0.08
2022-12-13T13:05:28.889Z,-0.09
2022-12-13T13:06:36.026Z,-0.07
2022-12-13T13:07:43.562Z,-0.06
2022-12-13T13:08:59.224Z,-0.05
2022-12-13T13:10:16.328Z,-0.05
2022-12-13T13:11:27.904Z,-0.06
2022-12-13T13:12:32.423Z,-0.06
2022-12-13T13:13:46.056Z,-0.05
2022-12-13T13:14:50.349Z,-0.08
2022-12-13T13:15:57.842Z,-0.11
2022-12-13T13:17:02.024Z,-0.13
2022-12-13T13:18:04.749Z,-0.15
2022-12-13T13:19:41.994Z,-0.17
2022-12-13T13:20:45.054Z,-0.23
2022-12-13T13:21:50.300Z,-0.25
2022-12-13T13:23:10.305Z,-0.28
2022-12-13T13:24:19.888Z,-0.30
2022-12-13T13:25:32.726Z,-0.33
2022-12-13T13:26:40.612Z,-0.34
2022-12-13T13:27:44.942Z,-0.36
2022-12-13T13:28:47.738Z,-0.36
2022-12-13T13:29:50.968Z,-0.38
2022-12-13T13:31:04.877Z,-0.39
2022-12-13T13:32:27.914Z,-0.40
2022-12-13T13:33:45.008Z,-0.43
2022-12-13T13:34:49.488Z,-0.42
2022-12-13T13:35:54.237Z,-0.44
2022-12-13T13:36:59.258Z,-0.45
2022-12-13T13:38:05.383Z,-0.46
2022-12-13T13:39:16.413Z,-0.47
2022-12-13T13:40:34.364Z,-0.47
2022-12-13T13:41:56.685Z,-0.47
2022-12-13T13:43:04.762Z,-0.47
2022-12-13T13:44:35.501Z,-0.47
2022-12-13T13:45:57.681Z,-0.51
2022-12-13T13:47:12.827Z,-0.51
2022-12-13T13:48:25.008Z,-0.50
2022-12-13T13:49:31.622Z,-0.51
2022-12-13T13:51:10.606Z,-0.49
2022-12-13T13:52:25.568Z,-0.51
2022-12-13T13:53:41.071Z,-0.53
2022-12-13T13:55:40.647Z,-0.53
2022-12-13T13:57:33.204Z,-0.54
2022-12-13T13:59:07.002Z,-0.58
2022-12-13T14:00:14.846Z,-0.57
2022-12-13T14:01:47.981Z,-0.57
2022-12-13T14:03:33.117Z,-0.57
2022-12-13T14:04:59.529Z,-0.57
2022-12-13T14:06:35.189Z,-0.55
2022-12-13T14:07:54.379Z,-0.55
2022-12-13T14:09:20.432Z,-0.55
2022-12-13T14:10:51.408Z,-0.54
2022-12-13T14:12:34.657Z,-0.53
2022-12-13T14:14:21.352Z,-0.55
2022-12-13T14:15:49.271Z,-0.55
2022-12-13T14:17:41.458Z,-0.56
2022-12-13T14:19:21.290Z,-0.56
2022-12-13T14:20:46.226Z,-0.56
2022-12-13T14:22:06.809Z,-0.56
2022-12-13T14:23:21.806Z,-0.56
2022-12-13T14:24:44.057Z,-0.55
2022-12-13T14:25:59.951Z,-0.54
2022-12-13T14:27:11.662Z,-0.54
2022-12-13T14:28:18.500Z,-0.53
2022-12-13T14:29:25.552Z,-0.52
2022-12-13T14:30:29.525Z,-0.51
2022-12-13T14:31:37.427Z,-0.50
2022-12-13T14:32:40.648Z,-0.49